sensor_id;sensor_type;location;lat;lon;timestamp;P1;durP1;ratioP1;P2;durP2;ratioP2
62554;SDS011;48610;52.144;8.624;2023-05-02T00:01:41;10.70;;;5.20;;
62554;SDS011;48610;52.144;8.624;2023-05-02T00:04:42;7.30;;;5.43;;
62554;SDS011;48610;52.144;8.624;2023-05-02T00:07:43;7.75;;;5.50;;
62554;SDS011;48610;52.144;8.624;2023-05-02T00:10:43;8.90;;;6.10;;
62554;SDS011;48610;52.144;8.624;2023-05-02T00:13:44;7.82;;;5.40;;
62554;SDS011;48610;52.144;8.624;2023-05-02T00:16:44;7.93;;;6.05;;
62554;SDS011;48610;52.144;8.624;2023-05-02T00:19:45;8.95;;;5.70;;
62554;SDS011;48610;52.144;8.624;2023-05-02T00:22:46;13.60;;;5.78;;
62554;SDS011;48610;52.144;8.624;2023-05-02T00:25:47;9.38;;;5.97;;
62554;SDS011;48610;52.144;8.624;2023-05-02T00:28:47;7.60;;;5.50;;
62554;SDS011;48610;52.144;8.624;2023-05-02T00:31:48;6.97;;;5.70;;
62554;SDS011;48610;52.144;8.624;2023-05-02T00:34:48;7.00;;;5.50;;
62554;SDS011;48610;52.144;8.624;2023-05-02T00:37:49;8.48;;;6.10;;
62554;SDS011;48610;52.144;8.624;2023-05-02T00:40:50;7.20;;;5.47;;
62554;SDS011;48610;52.144;8.624;2023-05-02T00:43:51;8.35;;;5.95;;
62554;SDS011;48610;52.144;8.624;2023-05-02T00:46:53;8.70;;;5.57;;
62554;SDS011;48610;52.144;8.624;2023-05-02T00:49:54;8.82;;;6.00;;
62554;SDS011;48610;52.144;8.624;2023-05-02T00:52:55;9.60;;;6.00;;
62554;SDS011;48610;52.144;8.624;2023-05-02T00:55:59;8.63;;;5.30;;
62554;SDS011;48610;52.144;8.624;2023-05-02T00:59:01;9.05;;;6.20;;
62554;SDS011;48610;52.144;8.624;2023-05-02T01:08:20;10.90;;;6.40;;
62554;SDS011;48610;52.144;8.624;2023-05-02T01:11:38;10.38;;;7.30;;
62554;SDS011;48610;52.144;8.624;2023-05-02T01:14:50;8.55;;;6.40;;
62554;SDS011;48610;52.144;8.624;2023-05-02T01:17:55;9.07;;;6.30;;
62554;SDS011;48610;52.144;8.624;2023-05-02T01:21:02;10.43;;;6.43;;
62554;SDS011;48610;52.144;8.624;2023-05-02T01:27:29;11.18;;;6.95;;
62554;SDS011;48610;52.144;8.624;2023-05-02T01:30:33;11.80;;;7.40;;
62554;SDS011;48610;52.144;8.624;2023-05-02T01:33:37;11.77;;;7.85;;
62554;SDS011;48610;52.144;8.624;2023-05-02T01:36:46;11.60;;;8.57;;
62554;SDS011;48610;52.144;8.624;2023-05-02T01:39:49;14.02;;;8.40;;
62554;SDS011;48610;52.144;8.624;2023-05-02T01:42:51;13.88;;;8.20;;
62554;SDS011;48610;52.144;8.624;2023-05-02T01:45:54;14.90;;;8.00;;
62554;SDS011;48610;52.144;8.624;2023-05-02T01:48:56;12.63;;;8.40;;
62554;SDS011;48610;52.144;8.624;2023-05-02T01:52:01;13.52;;;8.75;;
62554;SDS011;48610;52.144;8.624;2023-05-02T01:55:05;15.18;;;9.68;;
62554;SDS011;48610;52.144;8.624;2023-05-02T01:58:09;16.42;;;10.07;;
62554;SDS011;48610;52.144;8.624;2023-05-02T02:01:13;21.98;;;12.15;;
62554;SDS011;48610;52.144;8.624;2023-05-02T02:04:14;20.20;;;13.18;;
62554;SDS011;48610;52.144;8.624;2023-05-02T02:07:16;26.05;;;13.88;;
62554;SDS011;48610;52.144;8.624;2023-05-02T02:10:16;23.40;;;14.15;;
62554;SDS011;48610;52.144;8.624;2023-05-02T02:13:30;29.05;;;14.98;;
62554;SDS011;48610;52.144;8.624;2023-05-02T02:16:38;30.08;;;17.20;;
62554;SDS011;48610;52.144;8.624;2023-05-02T02:19:41;30.15;;;17.75;;
62554;SDS011;48610;52.144;8.624;2023-05-02T02:22:43;34.38;;;18.38;;
62554;SDS011;48610;52.144;8.624;2023-05-02T02:25:44;31.52;;;18.13;;
62554;SDS011;48610;52.144;8.624;2023-05-02T02:28:45;30.50;;;18.20;;
62554;SDS011;48610;52.144;8.624;2023-05-02T02:31:47;37.45;;;19.17;;
62554;SDS011;48610;52.144;8.624;2023-05-02T02:34:47;34.80;;;18.00;;
62554;SDS011;48610;52.144;8.624;2023-05-02T02:37:53;30.60;;;18.83;;
62554;SDS011;48610;52.144;8.624;2023-05-02T02:41:13;30.05;;;16.88;;
62554;SDS011;48610;52.144;8.624;2023-05-02T02:44:43;30.27;;;18.27;;
62554;SDS011;48610;52.144;8.624;2023-05-02T02:54:12;31.55;;;16.65;;
62554;SDS011;48610;52.144;8.624;2023-05-02T02:57:24;35.45;;;17.95;;
62554;SDS011;48610;52.144;8.624;2023-05-02T03:00:38;31.60;;;16.85;;
62554;SDS011;48610;52.144;8.624;2023-05-02T03:03:39;29.52;;;17.08;;
62554;SDS011;48610;52.144;8.624;2023-05-02T03:06:42;35.67;;;17.38;;
62554;SDS011;48610;52.144;8.624;2023-05-02T03:09:44;32.22;;;17.13;;
62554;SDS011;48610;52.144;8.624;2023-05-02T03:12:45;26.38;;;16.08;;
62554;SDS011;48610;52.144;8.624;2023-05-02T03:18:53;34.10;;;16.40;;
62554;SDS011;48610;52.144;8.624;2023-05-02T03:21:53;31.45;;;16.85;;
62554;SDS011;48610;52.144;8.624;2023-05-02T03:24:54;29.25;;;15.68;;
62554;SDS011;48610;52.144;8.624;2023-05-02T03:27:55;33.17;;;17.23;;
62554;SDS011;48610;52.144;8.624;2023-05-02T03:30:56;31.60;;;16.50;;
62554;SDS011;48610;52.144;8.624;2023-05-02T03:33:57;35.10;;;17.02;;
62554;SDS011;48610;52.144;8.624;2023-05-02T03:36:58;33.10;;;16.83;;
62554;SDS011;48610;52.144;8.624;2023-05-02T03:39:58;38.67;;;16.77;;
62554;SDS011;48610;52.144;8.624;2023-05-02T03:42:59;29.48;;;16.05;;
62554;SDS011;48610;52.144;8.624;2023-05-02T03:46:04;32.88;;;16.38;;
62554;SDS011;48610;52.144;8.624;2023-05-02T03:49:08;33.00;;;17.17;;
62554;SDS011;48610;52.144;8.624;2023-05-02T03:52:09;30.63;;;16.02;;
62554;SDS011;48610;52.144;8.624;2023-05-02T03:55:09;34.92;;;15.77;;
62554;SDS011;48610;52.144;8.624;2023-05-02T03:58:10;29.77;;;16.10;;
62554;SDS011;48610;52.144;8.624;2023-05-02T04:01:14;31.70;;;16.55;;
62554;SDS011;48610;52.144;8.624;2023-05-02T04:04:15;34.03;;;16.05;;
62554;SDS011;48610;52.144;8.624;2023-05-02T04:07:16;37.25;;;16.83;;
62554;SDS011;48610;52.144;8.624;2023-05-02T04:10:18;37.38;;;17.45;;
62554;SDS011;48610;52.144;8.624;2023-05-02T04:13:18;35.85;;;17.15;;
62554;SDS011;48610;52.144;8.624;2023-05-02T04:16:19;31.88;;;16.40;;
62554;SDS011;48610;52.144;8.624;2023-05-02T04:19:20;35.08;;;16.63;;
62554;SDS011;48610;52.144;8.624;2023-05-02T04:22:20;37.42;;;18.23;;
62554;SDS011;48610;52.144;8.624;2023-05-02T04:25:21;36.20;;;15.60;;
62554;SDS011;48610;52.144;8.624;2023-05-02T04:28:21;35.95;;;16.42;;
62554;SDS011;48610;52.144;8.624;2023-05-02T04:31:22;45.80;;;16.95;;
62554;SDS011;48610;52.144;8.624;2023-05-02T04:34:23;35.00;;;16.95;;
62554;SDS011;48610;52.144;8.624;2023-05-02T04:37:24;45.75;;;16.33;;
62554;SDS011;48610;52.144;8.624;2023-05-02T04:40:24;36.03;;;16.88;;
62554;SDS011;48610;52.144;8.624;2023-05-02T04:43:25;34.47;;;16.60;;
62554;SDS011;48610;52.144;8.624;2023-05-02T04:46:26;31.45;;;15.93;;
62554;SDS011;48610;52.144;8.624;2023-05-02T04:49:27;33.28;;;16.35;;
62554;SDS011;48610;52.144;8.624;2023-05-02T04:52:27;32.53;;;16.10;;
62554;SDS011;48610;52.144;8.624;2023-05-02T04:55:29;33.08;;;15.35;;
62554;SDS011;48610;52.144;8.624;2023-05-02T04:58:30;30.02;;;15.10;;
62554;SDS011;48610;52.144;8.624;2023-05-02T05:01:31;24.20;;;11.95;;
62554;SDS011;48610;52.144;8.624;2023-05-02T05:04:31;21.73;;;11.85;;
62554;SDS011;48610;52.144;8.624;2023-05-02T05:07:32;20.80;;;10.13;;
62554;SDS011;48610;52.144;8.624;2023-05-02T05:10:33;16.30;;;9.52;;
62554;SDS011;48610;52.144;8.624;2023-05-02T05:13:33;14.45;;;8.32;;
62554;SDS011;48610;52.144;8.624;2023-05-02T05:16:34;14.88;;;8.18;;
62554;SDS011;48610;52.144;8.624;2023-05-02T05:19:36;14.68;;;7.95;;
62554;SDS011;48610;52.144;8.624;2023-05-02T05:22:38;15.05;;;7.20;;
62554;SDS011;48610;52.144;8.624;2023-05-02T05:25:38;12.25;;;6.00;;
62554;SDS011;48610;52.144;8.624;2023-05-02T05:28:39;6.18;;;4.00;;
62554;SDS011;48610;52.144;8.624;2023-05-02T05:31:40;5.95;;;4.10;;
62554;SDS011;48610;52.144;8.624;2023-05-02T05:34:41;10.43;;;4.00;;
62554;SDS011;48610;52.144;8.624;2023-05-02T05:37:42;9.00;;;4.38;;
62554;SDS011;48610;52.144;8.624;2023-05-02T05:40:43;9.52;;;4.82;;
62554;SDS011;48610;52.144;8.624;2023-05-02T05:43:44;13.20;;;4.90;;
62554;SDS011;48610;52.144;8.624;2023-05-02T05:46:44;9.10;;;4.50;;
62554;SDS011;48610;52.144;8.624;2023-05-02T05:49:45;11.98;;;4.30;;
62554;SDS011;48610;52.144;8.624;2023-05-02T05:52:45;11.07;;;4.45;;
62554;SDS011;48610;52.144;8.624;2023-05-02T05:55:46;8.02;;;4.35;;
62554;SDS011;48610;52.144;8.624;2023-05-02T05:58:47;8.13;;;4.32;;
62554;SDS011;48610;52.144;8.624;2023-05-02T06:01:47;13.40;;;5.35;;
62554;SDS011;48610;52.144;8.624;2023-05-02T06:04:48;8.95;;;4.55;;
62554;SDS011;48610;52.144;8.624;2023-05-02T06:07:48;15.48;;;5.15;;
62554;SDS011;48610;52.144;8.624;2023-05-02T06:10:49;9.40;;;4.88;;
62554;SDS011;48610;52.144;8.624;2023-05-02T06:13:50;9.57;;;5.05;;
62554;SDS011;48610;52.144;8.624;2023-05-02T06:16:51;10.88;;;5.07;;
62554;SDS011;48610;52.144;8.624;2023-05-02T06:19:51;13.20;;;5.25;;
62554;SDS011;48610;52.144;8.624;2023-05-02T06:22:52;13.15;;;5.80;;
62554;SDS011;48610;52.144;8.624;2023-05-02T06:25:52;10.68;;;5.38;;
62554;SDS011;48610;52.144;8.624;2023-05-02T06:28:53;13.15;;;5.68;;
62554;SDS011;48610;52.144;8.624;2023-05-02T06:31:55;13.48;;;4.82;;
62554;SDS011;48610;52.144;8.624;2023-05-02T06:34:56;15.38;;;5.22;;
62554;SDS011;48610;52.144;8.624;2023-05-02T06:37:56;12.07;;;6.00;;
62554;SDS011;48610;52.144;8.624;2023-05-02T06:40:57;17.90;;;5.75;;
62554;SDS011;48610;52.144;8.624;2023-05-02T06:43:57;13.23;;;5.38;;
62554;SDS011;48610;52.144;8.624;2023-05-02T06:46:58;14.85;;;5.53;;
62554;SDS011;48610;52.144;8.624;2023-05-02T06:49:59;16.95;;;5.38;;
62554;SDS011;48610;52.144;8.624;2023-05-02T06:52:59;12.60;;;5.32;;
62554;SDS011;48610;52.144;8.624;2023-05-02T06:56:00;13.15;;;4.43;;
62554;SDS011;48610;52.144;8.624;2023-05-02T06:59:01;11.73;;;4.35;;
62554;SDS011;48610;52.144;8.624;2023-05-02T07:02:01;15.18;;;4.18;;
62554;SDS011;48610;52.144;8.624;2023-05-02T07:05:02;13.57;;;4.43;;
62554;SDS011;48610;52.144;8.624;2023-05-02T07:08:03;13.65;;;4.22;;
62554;SDS011;48610;52.144;8.624;2023-05-02T07:11:04;17.50;;;4.43;;
62554;SDS011;48610;52.144;8.624;2023-05-02T07:14:04;12.55;;;4.97;;
62554;SDS011;48610;52.144;8.624;2023-05-02T07:17:05;13.77;;;4.50;;
62554;SDS011;48610;52.144;8.624;2023-05-02T07:20:06;14.10;;;4.35;;
62554;SDS011;48610;52.144;8.624;2023-05-02T07:23:07;16.13;;;4.55;;
62554;SDS011;48610;52.144;8.624;2023-05-02T07:26:08;17.15;;;4.75;;
62554;SDS011;48610;52.144;8.624;2023-05-02T07:29:09;19.17;;;5.35;;
62554;SDS011;48610;52.144;8.624;2023-05-02T07:32:09;19.08;;;4.72;;
62554;SDS011;48610;52.144;8.624;2023-05-02T07:35:10;19.20;;;5.53;;
62554;SDS011;48610;52.144;8.624;2023-05-02T07:38:11;25.40;;;5.45;;
62554;SDS011;48610;52.144;8.624;2023-05-02T07:41:12;15.40;;;5.20;;
62554;SDS011;48610;52.144;8.624;2023-05-02T07:44:13;22.15;;;5.00;;
62554;SDS011;48610;52.144;8.624;2023-05-02T07:47:14;17.20;;;4.60;;
62554;SDS011;48610;52.144;8.624;2023-05-02T07:50:14;16.10;;;4.72;;
62554;SDS011;48610;52.144;8.624;2023-05-02T07:53:15;14.52;;;4.80;;
62554;SDS011;48610;52.144;8.624;2023-05-02T07:56:16;19.25;;;4.95;;
62554;SDS011;48610;52.144;8.624;2023-05-02T07:59:16;21.80;;;5.47;;
62554;SDS011;48610;52.144;8.624;2023-05-02T08:02:17;17.23;;;5.13;;
62554;SDS011;48610;52.144;8.624;2023-05-02T08:05:19;18.77;;;5.32;;
62554;SDS011;48610;52.144;8.624;2023-05-02T08:08:20;13.98;;;4.93;;
62554;SDS011;48610;52.144;8.624;2023-05-02T08:11:21;12.38;;;4.63;;
62554;SDS011;48610;52.144;8.624;2023-05-02T08:14:24;16.92;;;5.15;;
62554;SDS011;48610;52.144;8.624;2023-05-02T08:17:25;14.15;;;4.45;;
62554;SDS011;48610;52.144;8.624;2023-05-02T08:20:28;23.38;;;5.45;;
62554;SDS011;48610;52.144;8.624;2023-05-02T08:23:28;16.70;;;5.20;;
62554;SDS011;48610;52.144;8.624;2023-05-02T08:26:30;18.30;;;4.75;;
62554;SDS011;48610;52.144;8.624;2023-05-02T08:29:30;19.95;;;5.13;;
62554;SDS011;48610;52.144;8.624;2023-05-02T08:32:31;17.75;;;4.40;;
62554;SDS011;48610;52.144;8.624;2023-05-02T08:35:32;17.77;;;4.20;;
62554;SDS011;48610;52.144;8.624;2023-05-02T08:38:32;15.75;;;4.07;;
62554;SDS011;48610;52.144;8.624;2023-05-02T08:41:33;17.73;;;4.80;;
62554;SDS011;48610;52.144;8.624;2023-05-02T08:44:34;15.00;;;3.97;;
62554;SDS011;48610;52.144;8.624;2023-05-02T08:47:35;13.00;;;4.03;;
62554;SDS011;48610;52.144;8.624;2023-05-02T08:50:41;9.00;;;3.85;;
62554;SDS011;48610;52.144;8.624;2023-05-02T08:53:44;11.35;;;3.33;;
62554;SDS011;48610;52.144;8.624;2023-05-02T08:56:45;7.47;;;3.00;;
62554;SDS011;48610;52.144;8.624;2023-05-02T08:59:46;9.65;;;3.20;;
62554;SDS011;48610;52.144;8.624;2023-05-02T09:06:04;7.82;;;3.03;;
62554;SDS011;48610;52.144;8.624;2023-05-02T09:09:06;16.75;;;3.50;;
62554;SDS011;48610;52.144;8.624;2023-05-02T09:12:07;11.50;;;2.90;;
62554;SDS011;48610;52.144;8.624;2023-05-02T09:15:08;9.75;;;3.38;;
62554;SDS011;48610;52.144;8.624;2023-05-02T09:18:09;8.23;;;3.30;;
62554;SDS011;48610;52.144;8.624;2023-05-02T09:21:20;10.40;;;3.25;;
62554;SDS011;48610;52.144;8.624;2023-05-02T09:24:23;9.55;;;3.08;;
62554;SDS011;48610;52.144;8.624;2023-05-02T09:27:24;14.38;;;3.47;;
62554;SDS011;48610;52.144;8.624;2023-05-02T09:30:26;14.48;;;3.70;;
62554;SDS011;48610;52.144;8.624;2023-05-02T09:33:27;11.10;;;2.72;;
62554;SDS011;48610;52.144;8.624;2023-05-02T09:36:28;13.02;;;3.53;;
62554;SDS011;48610;52.144;8.624;2023-05-02T09:40:04;8.18;;;3.05;;
62554;SDS011;48610;52.144;8.624;2023-05-02T09:43:14;13.53;;;3.57;;
62554;SDS011;48610;52.144;8.624;2023-05-02T09:46:16;6.88;;;3.00;;
62554;SDS011;48610;52.144;8.624;2023-05-02T09:49:16;8.68;;;3.20;;
62554;SDS011;48610;52.144;8.624;2023-05-02T09:52:18;10.95;;;3.08;;
62554;SDS011;48610;52.144;8.624;2023-05-02T09:55:22;16.85;;;3.67;;
62554;SDS011;48610;52.144;8.624;2023-05-02T09:58:23;16.30;;;3.85;;
62554;SDS011;48610;52.144;8.624;2023-05-02T10:01:24;9.73;;;3.65;;
62554;SDS011;48610;52.144;8.624;2023-05-02T10:04:25;21.88;;;3.92;;
62554;SDS011;48610;52.144;8.624;2023-05-02T10:07:27;14.05;;;3.60;;
62554;SDS011;48610;52.144;8.624;2023-05-02T10:10:28;11.52;;;3.65;;
62554;SDS011;48610;52.144;8.624;2023-05-02T10:13:31;12.45;;;3.38;;
62554;SDS011;48610;52.144;8.624;2023-05-02T10:16:33;12.77;;;3.67;;
62554;SDS011;48610;52.144;8.624;2023-05-02T10:19:39;11.68;;;4.03;;
62554;SDS011;48610;52.144;8.624;2023-05-02T10:22:48;12.10;;;3.70;;
62554;SDS011;48610;52.144;8.624;2023-05-02T10:25:50;11.38;;;3.78;;
62554;SDS011;48610;52.144;8.624;2023-05-02T10:28:51;12.27;;;3.75;;
62554;SDS011;48610;52.144;8.624;2023-05-02T10:31:56;11.95;;;3.65;;
62554;SDS011;48610;52.144;8.624;2023-05-02T10:35:03;13.63;;;4.03;;
62554;SDS011;48610;52.144;8.624;2023-05-02T10:38:04;14.32;;;4.60;;
62554;SDS011;48610;52.144;8.624;2023-05-02T10:41:07;14.82;;;4.03;;
62554;SDS011;48610;52.144;8.624;2023-05-02T10:44:35;11.35;;;4.03;;
62554;SDS011;48610;52.144;8.624;2023-05-02T10:47:40;12.77;;;3.85;;
62554;SDS011;48610;52.144;8.624;2023-05-02T10:50:44;12.35;;;3.50;;
62554;SDS011;48610;52.144;8.624;2023-05-02T10:57:19;10.35;;;3.60;;
62554;SDS011;48610;52.144;8.624;2023-05-02T11:00:20;16.85;;;3.92;;
62554;SDS011;48610;52.144;8.624;2023-05-02T11:03:52;10.02;;;3.95;;
62554;SDS011;48610;52.144;8.624;2023-05-02T11:13:26;37.30;;;19.08;;
62554;SDS011;48610;52.144;8.624;2023-05-02T11:26:20;10.88;;;3.83;;
62554;SDS011;48610;52.144;8.624;2023-05-02T11:35:54;6.45;;;3.25;;
62554;SDS011;48610;52.144;8.624;2023-05-02T11:38:59;10.88;;;3.92;;
62554;SDS011;48610;52.144;8.624;2023-05-02T11:42:00;9.35;;;3.45;;
62554;SDS011;48610;52.144;8.624;2023-05-02T11:45:00;7.50;;;2.97;;
62554;SDS011;48610;52.144;8.624;2023-05-02T11:48:04;10.45;;;3.58;;
62554;SDS011;48610;52.144;8.624;2023-05-02T11:51:06;7.43;;;3.00;;
62554;SDS011;48610;52.144;8.624;2023-05-02T11:54:06;13.48;;;3.55;;
62554;SDS011;48610;52.144;8.624;2023-05-02T11:57:07;12.15;;;3.58;;
62554;SDS011;48610;52.144;8.624;2023-05-02T12:00:08;13.77;;;3.67;;
62554;SDS011;48610;52.144;8.624;2023-05-02T12:03:17;12.45;;;4.15;;
62554;SDS011;48610;52.144;8.624;2023-05-02T12:06:32;7.40;;;3.80;;
62554;SDS011;48610;52.144;8.624;2023-05-02T12:09:33;14.98;;;4.05;;
62554;SDS011;48610;52.144;8.624;2023-05-02T12:12:34;11.52;;;3.95;;
62554;SDS011;48610;52.144;8.624;2023-05-02T12:15:35;12.43;;;3.72;;
62554;SDS011;48610;52.144;8.624;2023-05-02T12:18:35;8.57;;;3.47;;
62554;SDS011;48610;52.144;8.624;2023-05-02T12:21:36;9.18;;;3.90;;
62554;SDS011;48610;52.144;8.624;2023-05-02T12:24:37;10.68;;;3.92;;
62554;SDS011;48610;52.144;8.624;2023-05-02T12:27:38;11.63;;;3.90;;
62554;SDS011;48610;52.144;8.624;2023-05-02T12:30:38;12.13;;;3.95;;
62554;SDS011;48610;52.144;8.624;2023-05-02T12:33:42;11.40;;;3.90;;
62554;SDS011;48610;52.144;8.624;2023-05-02T12:36:43;11.25;;;3.85;;
62554;SDS011;48610;52.144;8.624;2023-05-02T12:39:44;19.02;;;4.55;;
62554;SDS011;48610;52.144;8.624;2023-05-02T12:43:00;13.02;;;3.80;;
62554;SDS011;48610;52.144;8.624;2023-05-02T12:46:09;16.02;;;3.65;;
62554;SDS011;48610;52.144;8.624;2023-05-02T12:49:10;13.88;;;3.85;;
62554;SDS011;48610;52.144;8.624;2023-05-02T12:52:13;7.70;;;3.53;;
62554;SDS011;48610;52.144;8.624;2023-05-02T12:55:21;15.90;;;3.78;;
62554;SDS011;48610;52.144;8.624;2023-05-02T12:58:27;8.63;;;3.45;;
62554;SDS011;48610;52.144;8.624;2023-05-02T13:01:28;17.95;;;10.63;;
62554;SDS011;48610;52.144;8.624;2023-05-02T13:04:36;10.38;;;3.60;;
62554;SDS011;48610;52.144;8.624;2023-05-02T13:07:39;10.50;;;3.83;;
62554;SDS011;48610;52.144;8.624;2023-05-02T13:10:40;7.25;;;3.67;;
62554;SDS011;48610;52.144;8.624;2023-05-02T13:13:41;15.07;;;3.92;;
62554;SDS011;48610;52.144;8.624;2023-05-02T13:16:42;11.07;;;3.88;;
62554;SDS011;48610;52.144;8.624;2023-05-02T13:19:42;8.95;;;3.40;;
62554;SDS011;48610;52.144;8.624;2023-05-02T13:22:43;10.60;;;3.85;;
62554;SDS011;48610;52.144;8.624;2023-05-02T13:25:44;10.88;;;3.85;;
62554;SDS011;48610;52.144;8.624;2023-05-02T13:28:44;13.10;;;4.10;;
62554;SDS011;48610;52.144;8.624;2023-05-02T13:31:45;13.15;;;4.40;;
62554;SDS011;48610;52.144;8.624;2023-05-02T13:34:45;8.32;;;3.90;;
62554;SDS011;48610;52.144;8.624;2023-05-02T13:37:46;10.65;;;4.35;;
62554;SDS011;48610;52.144;8.624;2023-05-02T13:40:48;9.23;;;3.78;;
62554;SDS011;48610;52.144;8.624;2023-05-02T13:43:49;12.85;;;5.50;;
62554;SDS011;48610;52.144;8.624;2023-05-02T13:46:50;13.50;;;4.45;;
62554;SDS011;48610;52.144;8.624;2023-05-02T13:49:50;12.00;;;4.30;;
62554;SDS011;48610;52.144;8.624;2023-05-02T13:52:51;10.25;;;3.90;;
62554;SDS011;48610;52.144;8.624;2023-05-02T13:55:52;10.77;;;4.50;;
62554;SDS011;48610;52.144;8.624;2023-05-02T13:58:52;25.85;;;4.10;;
62554;SDS011;48610;52.144;8.624;2023-05-02T14:01:54;12.27;;;4.20;;
62554;SDS011;48610;52.144;8.624;2023-05-02T14:04:55;11.02;;;4.10;;
62554;SDS011;48610;52.144;8.624;2023-05-02T14:07:55;8.60;;;3.75;;
62554;SDS011;48610;52.144;8.624;2023-05-02T14:10:56;7.93;;;3.55;;
62554;SDS011;48610;52.144;8.624;2023-05-02T14:13:56;10.85;;;3.88;;
62554;SDS011;48610;52.144;8.624;2023-05-02T14:16:58;8.45;;;3.58;;
62554;SDS011;48610;52.144;8.624;2023-05-02T14:20:01;15.20;;;3.58;;
62554;SDS011;48610;52.144;8.624;2023-05-02T14:23:02;6.53;;;3.70;;
62554;SDS011;48610;52.144;8.624;2023-05-02T14:26:03;7.88;;;3.70;;
62554;SDS011;48610;52.144;8.624;2023-05-02T14:29:03;8.13;;;3.45;;
62554;SDS011;48610;52.144;8.624;2023-05-02T14:32:04;11.43;;;3.70;;
62554;SDS011;48610;52.144;8.624;2023-05-02T14:35:05;12.25;;;4.88;;
62554;SDS011;48610;52.144;8.624;2023-05-02T14:38:06;11.32;;;6.07;;
62554;SDS011;48610;52.144;8.624;2023-05-02T14:41:06;13.15;;;3.90;;
62554;SDS011;48610;52.144;8.624;2023-05-02T14:44:07;8.98;;;3.42;;
62554;SDS011;48610;52.144;8.624;2023-05-02T14:47:08;6.28;;;3.40;;
62554;SDS011;48610;52.144;8.624;2023-05-02T14:50:08;10.82;;;3.55;;
62554;SDS011;48610;52.144;8.624;2023-05-02T14:53:09;8.02;;;3.28;;
62554;SDS011;48610;52.144;8.624;2023-05-02T14:56:11;12.02;;;3.40;;
62554;SDS011;48610;52.144;8.624;2023-05-02T14:59:13;7.43;;;3.47;;
62554;SDS011;48610;52.144;8.624;2023-05-02T15:02:14;6.25;;;3.28;;
62554;SDS011;48610;52.144;8.624;2023-05-02T15:05:15;13.73;;;4.38;;
62554;SDS011;48610;52.144;8.624;2023-05-02T15:08:15;8.73;;;4.07;;
62554;SDS011;48610;52.144;8.624;2023-05-02T15:11:16;10.93;;;3.75;;
62554;SDS011;48610;52.144;8.624;2023-05-02T15:14:17;32.00;;;17.70;;
62554;SDS011;48610;52.144;8.624;2023-05-02T15:17:18;18.88;;;9.50;;
62554;SDS011;48610;52.144;8.624;2023-05-02T15:20:19;22.98;;;14.02;;
62554;SDS011;48610;52.144;8.624;2023-05-02T15:23:20;7.88;;;3.53;;
62554;SDS011;48610;52.144;8.624;2023-05-02T15:26:21;10.02;;;4.28;;
62554;SDS011;48610;52.144;8.624;2023-05-02T15:29:23;10.68;;;3.95;;
62554;SDS011;48610;52.144;8.624;2023-05-02T15:32:24;13.63;;;7.10;;
62554;SDS011;48610;52.144;8.624;2023-05-02T15:35:24;7.57;;;3.85;;
62554;SDS011;48610;52.144;8.624;2023-05-02T15:38:25;10.40;;;4.30;;
62554;SDS011;48610;52.144;8.624;2023-05-02T15:41:26;7.28;;;3.08;;
62554;SDS011;48610;52.144;8.624;2023-05-02T15:44:26;10.45;;;3.63;;
62554;SDS011;48610;52.144;8.624;2023-05-02T15:47:27;8.35;;;3.28;;
62554;SDS011;48610;52.144;8.624;2023-05-02T15:50:28;6.07;;;3.20;;
62554;SDS011;48610;52.144;8.624;2023-05-02T15:53:29;4.05;;;2.85;;
62554;SDS011;48610;52.144;8.624;2023-05-02T15:56:29;4.75;;;2.90;;
62554;SDS011;48610;52.144;8.624;2023-05-02T15:59:30;5.13;;;2.90;;
62554;SDS011;48610;52.144;8.624;2023-05-02T16:02:31;8.70;;;2.67;;
62554;SDS011;48610;52.144;8.624;2023-05-02T16:05:33;5.28;;;3.00;;
62554;SDS011;48610;52.144;8.624;2023-05-02T16:08:34;6.28;;;2.83;;
62554;SDS011;48610;52.144;8.624;2023-05-02T16:11:35;8.32;;;2.70;;
62554;SDS011;48610;52.144;8.624;2023-05-02T16:14:36;8.15;;;2.88;;
62554;SDS011;48610;52.144;8.624;2023-05-02T16:17:36;4.45;;;2.58;;
62554;SDS011;48610;52.144;8.624;2023-05-02T16:20:37;8.63;;;2.90;;
62554;SDS011;48610;52.144;8.624;2023-05-02T16:23:38;5.03;;;2.70;;
62554;SDS011;48610;52.144;8.624;2023-05-02T16:26:39;4.05;;;2.85;;
62554;SDS011;48610;52.144;8.624;2023-05-02T16:29:40;5.60;;;2.72;;
62554;SDS011;48610;52.144;8.624;2023-05-02T16:32:40;7.65;;;3.33;;
62554;SDS011;48610;52.144;8.624;2023-05-02T16:35:41;4.78;;;2.50;;
62554;SDS011;48610;52.144;8.624;2023-05-02T16:38:42;5.68;;;2.67;;
62554;SDS011;48610;52.144;8.624;2023-05-02T16:41:42;5.68;;;2.38;;
62554;SDS011;48610;52.144;8.624;2023-05-02T16:44:44;5.30;;;2.63;;
62554;SDS011;48610;52.144;8.624;2023-05-02T16:47:44;7.30;;;2.55;;
62554;SDS011;48610;52.144;8.624;2023-05-02T16:50:45;4.88;;;2.53;;
62554;SDS011;48610;52.144;8.624;2023-05-02T16:53:46;7.35;;;2.42;;
62554;SDS011;48610;52.144;8.624;2023-05-02T16:56:46;5.93;;;2.42;;
62554;SDS011;48610;52.144;8.624;2023-05-02T16:59:48;2.45;;;1.83;;
62554;SDS011;48610;52.144;8.624;2023-05-02T17:02:50;5.65;;;3.25;;
62554;SDS011;48610;52.144;8.624;2023-05-02T17:05:56;3.30;;;2.10;;
62554;SDS011;48610;52.144;8.624;2023-05-02T17:08:58;4.20;;;2.40;;
62554;SDS011;48610;52.144;8.624;2023-05-02T17:11:59;4.85;;;2.40;;
62554;SDS011;48610;52.144;8.624;2023-05-02T17:15:01;3.53;;;1.95;;
62554;SDS011;48610;52.144;8.624;2023-05-02T17:18:02;2.85;;;2.25;;
62554;SDS011;48610;52.144;8.624;2023-05-02T17:21:03;4.78;;;2.50;;
62554;SDS011;48610;52.144;8.624;2023-05-02T17:24:04;3.53;;;2.10;;
62554;SDS011;48610;52.144;8.624;2023-05-02T17:27:05;4.70;;;2.20;;
62554;SDS011;48610;52.144;8.624;2023-05-02T17:30:06;8.85;;;2.50;;
62554;SDS011;48610;52.144;8.624;2023-05-02T17:33:07;5.32;;;2.10;;
62554;SDS011;48610;52.144;8.624;2023-05-02T17:36:08;3.80;;;2.30;;
62554;SDS011;48610;52.144;8.624;2023-05-02T17:39:09;3.60;;;2.40;;
62554;SDS011;48610;52.144;8.624;2023-05-02T17:42:12;5.22;;;2.00;;
62554;SDS011;48610;52.144;8.624;2023-05-02T17:45:12;3.08;;;2.15;;
62554;SDS011;48610;52.144;8.624;2023-05-02T17:48:13;8.95;;;2.78;;
62554;SDS011;48610;52.144;8.624;2023-05-02T17:51:13;4.95;;;2.10;;
62554;SDS011;48610;52.144;8.624;2023-05-02T17:54:15;3.50;;;2.50;;
62554;SDS011;48610;52.144;8.624;2023-05-02T17:57:15;4.93;;;2.35;;
62554;SDS011;48610;52.144;8.624;2023-05-02T18:00:16;6.25;;;2.60;;
62554;SDS011;48610;52.144;8.624;2023-05-02T18:03:17;8.80;;;2.40;;
62554;SDS011;48610;52.144;8.624;2023-05-02T18:06:18;3.55;;;2.33;;
62554;SDS011;48610;52.144;8.624;2023-05-02T18:09:19;5.45;;;2.70;;
62554;SDS011;48610;52.144;8.624;2023-05-02T18:12:19;5.22;;;2.70;;
62554;SDS011;48610;52.144;8.624;2023-05-02T18:15:20;4.90;;;2.75;;
62554;SDS011;48610;52.144;8.624;2023-05-02T18:18:21;5.57;;;2.95;;
62554;SDS011;48610;52.144;8.624;2023-05-02T18:21:22;4.32;;;2.60;;
62554;SDS011;48610;52.144;8.624;2023-05-02T18:24:22;6.70;;;2.40;;
62554;SDS011;48610;52.144;8.624;2023-05-02T18:27:23;7.68;;;3.00;;
62554;SDS011;48610;52.144;8.624;2023-05-02T18:30:24;7.18;;;2.78;;
62554;SDS011;48610;52.144;8.624;2023-05-02T18:33:25;6.72;;;2.90;;
62554;SDS011;48610;52.144;8.624;2023-05-02T18:36:26;7.55;;;2.90;;
62554;SDS011;48610;52.144;8.624;2023-05-02T18:39:31;9.82;;;6.80;;
62554;SDS011;48610;52.144;8.624;2023-05-02T18:42:32;5.30;;;3.00;;
62554;SDS011;48610;52.144;8.624;2023-05-02T18:45:34;6.38;;;2.72;;
62554;SDS011;48610;52.144;8.624;2023-05-02T18:48:35;3.55;;;2.60;;
62554;SDS011;48610;52.144;8.624;2023-05-02T18:51:35;4.30;;;2.70;;